sensor_id;sensor_type;location;lat;lon;timestamp;temperature;humidity
18511;DHT22;9384;48.044;11.616;2022-12-13T00:01:27;-10.50;99.90
18511;DHT22;9384;48.044;11.616;2022-12-13T00:03:55;-10.60;99.90
18511;DHT22;9384;48.044;11.616;2022-12-13T00:06:23;-10.70;99.90
18511;DHT22;9384;48.044;11.616;2022-12-13T00:08:50;-10.70;99.90
18511;DHT22;9384;48.044;11.616;2022-12-13T00:11:17;-10.70;99.90
18511;DHT22;9384;48.044;11.616;2022-12-13T00:13:46;-10.70;99.90
18511;DHT22;9384;48.044;11.616;2022-12-13T00:16:16;-10.70;99.90
18511;DHT22;9384;48.044;11.616;2022-12-13T00:18:46;-10.70;99.90
18511;DHT22;9384;48.044;11.616;2022-12-13T00:21:14;-10.70;99.90
18511;DHT22;9384;48.044;11.616;2022-12-13T00:23:42;-10.90;99.90
18511;DHT22;9384;48.044;11.616;2022-12-13T00:26:13;-11.10;99.90
18511;DHT22;9384;48.044;11.616;2022-12-13T00:28:49;-11.20;99.90
18511;DHT22;9384;48.044;11.616;2022-12-13T00:31:16;-11.20;99.90
18511;DHT22;9384;48.044;11.616;2022-12-13T00:33:44;-11.20;99.90
18511;DHT22;9384;48.044;11.616;2022-12-13T00:36:10;-11.30;99.90
18511;DHT22;9384;48.044;11.616;2022-12-13T00:38:37;-11.20;99.90
18511;DHT22;9384;48.044;11.616;2022-12-13T00:41:13;-11.20;99.90
18511;DHT22;9384;48.044;11.616;2022-12-13T00:43:40;-11.10;99.90
18511;DHT22;9384;48.044;11.616;2022-12-13T00:46:12;-11.10;99.90
18511;DHT22;9384;48.044;11.616;2022-12-13T00:48:39;-11.20;99.90
18511;DHT22;9384;48.044;11.616;2022-12-13T00:51:07;-11.30;99.90
18511;DHT22;9384;48.044;11.616;2022-12-13T00:53:34;-11.30;99.90
18511;DHT22;9384;48.044;11.616;2022-12-13T00:56:12;-11.20;99.90
18511;DHT22;9384;48.044;11.616;2022-12-13T00:58:39;-11.20;99.90
18511;DHT22;9384;48.044;11.616;2022-12-13T01:01:09;-11.20;99.90
18511;DHT22;9384;48.044;11.616;2022-12-13T01:03:37;-11.20;99.90
18511;DHT22;9384;48.044;11.616;2022-12-13T01:06:08;-11.20;99.90
18511;DHT22;9384;48.044;11.616;2022-12-13T01:08:35;-11.20;99.90
18511;DHT22;9384;48.044;11.616;2022-12-13T01:11:03;-11.20;99.90
18511;DHT22;9384;48.044;11.616;2022-12-13T01:13:30;-11.20;99.90
18511;DHT22;9384;48.044;11.616;2022-12-13T01:15:57;-11.20;99.90
18511;DHT22;9384;48.044;11.616;2022-12-13T01:18:25;-11.10;99.90
18511;DHT22;9384;48.044;11.616;2022-12-13T01:21:00;-11.10;99.90
18511;DHT22;9384;48.044;11.616;2022-12-13T01:23:28;-11.00;99.90
18511;DHT22;9384;48.044;11.616;2022-12-13T01:25:55;-11.00;99.90
18511;DHT22;9384;48.044;11.616;2022-12-13T01:28:23;-10.90;99.90
18511;DHT22;9384;48.044;11.616;2022-12-13T01:30:54;-10.80;99.90
18511;DHT22;9384;48.044;11.616;2022-12-13T01:33:21;-10.80;99.90
18511;DHT22;9384;48.044;11.616;2022-12-13T01:35:50;-10.80;99.90
18511;DHT22;9384;48.044;11.616;2022-12-13T01:38:17;-10.80;99.90
18511;DHT22;9384;48.044;11.616;2022-12-13T01:40:45;-10.90;99.90
18511;DHT22;9384;48.044;11.616;2022-12-13T01:43:12;-10.90;99.90
18511;DHT22;9384;48.044;11.616;2022-12-13T01:45:40;-10.90;99.90
18511;DHT22;9384;48.044;11.616;2022-12-13T01:48:09;-10.80;99.90
18511;DHT22;9384;48.044;11.616;2022-12-13T01:50:42;-10.80;99.90
18511;DHT22;9384;48.044;11.616;2022-12-13T01:53:14;-10.90;99.90
18511;DHT22;9384;48.044;11.616;2022-12-13T01:55:43;-10.90;99.90
18511;DHT22;9384;48.044;11.616;2022-12-13T01:58:12;-10.90;99.90
18511;DHT22;9384;48.044;11.616;2022-12-13T02:00:40;-11.00;99.90
18511;DHT22;9384;48.044;11.616;2022-12-13T02:03:08;-11.00;99.90
18511;DHT22;9384;48.044;11.616;2022-12-13T02:05:39;-11.10;99.90
18511;DHT22;9384;48.044;11.616;2022-12-13T02:08:07;-11.30;99.90
18511;DHT22;9384;48.044;11.616;2022-12-13T02:10:38;-11.40;99.90
18511;DHT22;9384;48.044;11.616;2022-12-13T02:13:05;-11.40;99.90
18511;DHT22;9384;48.044;11.616;2022-12-13T02:15:38;-11.50;99.90
18511;DHT22;9384;48.044;11.616;2022-12-13T02:18:34;-11.40;99.90
18511;DHT22;9384;48.044;11.616;2022-12-13T02:21:22;-11.50;99.90
18511;DHT22;9384;48.044;11.616;2022-12-13T02:27:08;-11.30;99.90
18511;DHT22;9384;48.044;11.616;2022-12-13T02:35:36;-11.10;99.90
18511;DHT22;9384;48.044;11.616;2022-12-13T02:38:11;-11.10;99.90
18511;DHT22;9384;48.044;11.616;2022-12-13T02:40:43;-11.10;99.90
18511;DHT22;9384;48.044;11.616;2022-12-13T02:43:14;-11.20;99.90
18511;DHT22;9384;48.044;11.616;2022-12-13T02:45:46;-11.30;99.90
18511;DHT22;9384;48.044;11.616;2022-12-13T02:48:17;-11.40;99.90
18511;DHT22;9384;48.044;11.616;2022-12-13T02:50:46;-11.50;99.90
18511;DHT22;9384;48.044;11.616;2022-12-13T02:53:14;-11.50;99.90
18511;DHT22;9384;48.044;11.616;2022-12-13T02:55:41;-11.50;99.90
18511;DHT22;9384;48.044;11.616;2022-12-13T02:58:11;-11.50;99.90
18511;DHT22;9384;48.044;11.616;2022-12-13T03:00:47;-11.50;99.90
18511;DHT22;9384;48.044;11.616;2022-12-13T03:03:24;-11.40;99.90
18511;DHT22;9384;48.044;11.616;2022-12-13T03:05:58;-11.50;99.90
18511;DHT22;9384;48.044;11.616;2022-12-13T03:08:53;-11.50;99.90
18511;DHT22;9384;48.044;11.616;2022-12-13T03:11:22;-11.60;99.90
18511;DHT22;9384;48.044;11.616;2022-12-13T03:16:24;-11.60;99.90
18511;DHT22;9384;48.044;11.616;2022-12-13T03:18:57;-11.60;99.90
18511;DHT22;9384;48.044;11.616;2022-12-13T03:21:25;-11.50;99.90
18511;DHT22;9384;48.044;11.616;2022-12-13T03:23:51;-11.60;99.90
18511;DHT22;9384;48.044;11.616;2022-12-13T03:26:22;-11.50;99.90
18511;DHT22;9384;48.044;11.616;2022-12-13T03:28:50;-11.50;99.90
18511;DHT22;9384;48.044;11.616;2022-12-13T03:31:17;-11.50;99.90
18511;DHT22;9384;48.044;11.616;2022-12-13T03:33:44;-11.50;99.90
18511;DHT22;9384;48.044;11.616;2022-12-13T03:36:13;-11.50;99.90
18511;DHT22;9384;48.044;11.616;2022-12-13T03:38:40;-11.40;99.90
18511;DHT22;9384;48.044;11.616;2022-12-13T03:41:08;-11.40;99.90
18511;DHT22;9384;48.044;11.616;2022-12-13T03:43:36;-11.40;99.90
18511;DHT22;9384;48.044;11.616;2022-12-13T03:46:04;-11.40;99.90
18511;DHT22;9384;48.044;11.616;2022-12-13T03:48:31;-11.50;99.90
18511;DHT22;9384;48.044;11.616;2022-12-13T03:50:58;-11.60;99.90
18511;DHT22;9384;48.044;11.616;2022-12-13T03:53:27;-11.60;99.90
18511;DHT22;9384;48.044;11.616;2022-12-13T03:55:54;-11.50;99.90
18511;DHT22;9384;48.044;11.616;2022-12-13T03:58:21;-11.50;99.90
18511;DHT22;9384;48.044;11.616;2022-12-13T04:00:48;-11.40;99.90
18511;DHT22;9384;48.044;11.616;2022-12-13T04:03:15;-11.50;99.90
18511;DHT22;9384;48.044;11.616;2022-12-13T04:05:42;-11.50;99.90
18511;DHT22;9384;48.044;11.616;2022-12-13T04:08:08;-11.50;99.90
18511;DHT22;9384;48.044;11.616;2022-12-13T04:10:37;-11.50;99.90
18511;DHT22;9384;48.044;11.616;2022-12-13T04:13:03;-11.50;99.90
18511;DHT22;9384;48.044;11.616;2022-12-13T04:15:48;-11.60;99.90
18511;DHT22;9384;48.044;11.616;2022-12-13T04:18:15;-11.60;99.90
18511;DHT22;9384;48.044;11.616;2022-12-13T04:20:42;-11.70;99.90
18511;DHT22;9384;48.044;11.616;2022-12-13T04:25:38;-11.90;99.90
18511;DHT22;9384;48.044;11.616;2022-12-13T04:28:06;-11.80;99.90
18511;DHT22;9384;48.044;11.616;2022-12-13T04:30:34;-11.80;99.90
18511;DHT22;9384;48.044;11.616;2022-12-13T04:33:01;-12.00;99.90
18511;DHT22;9384;48.044;11.616;2022-12-13T04:35:28;-12.10;99.90
18511;DHT22;9384;48.044;11.616;2022-12-13T04:37:55;-12.20;99.90
18511;DHT22;9384;48.044;11.616;2022-12-13T04:40:22;-12.40;99.90
18511;DHT22;9384;48.044;11.616;2022-12-13T04:42:50;-12.40;99.90
18511;DHT22;9384;48.044;11.616;2022-12-13T04:45:20;-12.30;99.90
18511;DHT22;9384;48.044;11.616;2022-12-13T04:47:47;-12.30;99.90
18511;DHT22;9384;48.044;11.616;2022-12-13T04:50:14;-12.20;99.90
18511;DHT22;9384;48.044;11.616;2022-12-13T04:52:41;-12.20;99.90
18511;DHT22;9384;48.044;11.616;2022-12-13T04:55:09;-12.20;99.90
18511;DHT22;9384;48.044;11.616;2022-12-13T04:57:36;-12.30;99.90
18511;DHT22;9384;48.044;11.616;2022-12-13T05:00:06;-12.30;99.90
18511;DHT22;9384;48.044;11.616;2022-12-13T05:02:34;-12.20;99.90
18511;DHT22;9384;48.044;11.616;2022-12-13T05:05:01;-12.20;99.90
18511;DHT22;9384;48.044;11.616;2022-12-13T05:07:28;-12.20;99.90
18511;DHT22;9384;48.044;11.616;2022-12-13T05:09:54;-12.20;99.90
18511;DHT22;9384;48.044;11.616;2022-12-13T05:12:21;-12.50;99.90
18511;DHT22;9384;48.044;11.616;2022-12-13T05:14:48;-12.70;99.90
18511;DHT22;9384;48.044;11.616;2022-12-13T05:19:43;-12.70;99.90
18511;DHT22;9384;48.044;11.616;2022-12-13T05:22:10;-12.70;99.90
18511;DHT22;9384;48.044;11.616;2022-12-13T05:24:40;-12.60;99.90
18511;DHT22;9384;48.044;11.616;2022-12-13T05:27:08;-12.50;99.90
18511;DHT22;9384;48.044;11.616;2022-12-13T05:29:36;-12.40;99.90
18511;DHT22;9384;48.044;11.616;2022-12-13T05:32:03;-12.40;99.90
18511;DHT22;9384;48.044;11.616;2022-12-13T05:34:31;-12.40;99.90
18511;DHT22;9384;48.044;11.616;2022-12-13T05:36:58;-12.40;99.90
18511;DHT22;9384;48.044;11.616;2022-12-13T05:39:25;-12.40;99.90
18511;DHT22;9384;48.044;11.616;2022-12-13T05:41:53;-12.40;99.90
18511;DHT22;9384;48.044;11.616;2022-12-13T05:44:20;-12.40;99.90
18511;DHT22;9384;48.044;11.616;2022-12-13T05:46:47;-12.40;99.90
18511;DHT22;9384;48.044;11.616;2022-12-13T05:49:13;-12.40;99.90
18511;DHT22;9384;48.044;11.616;2022-12-13T05:51:42;-12.40;99.90
18511;DHT22;9384;48.044;11.616;2022-12-13T05:54:08;-12.40;99.90
18511;DHT22;9384;48.044;11.616;2022-12-13T06:00:01;-12.50;99.90
18511;DHT22;9384;48.044;11.616;2022-12-13T06:02:28;-12.50;99.90
18511;DHT22;9384;48.044;11.616;2022-12-13T06:04:55;-12.70;99.90
18511;DHT22;9384;48.044;11.616;2022-12-13T06:10:44;-12.90;99.90
18511;DHT22;9384;48.044;11.616;2022-12-13T06:13:19;-12.80;99.90
18511;DHT22;9384;48.044;11.616;2022-12-13T06:15:45;-12.70;99.90
18511;DHT22;9384;48.044;11.616;2022-12-13T06:18:12;-12.70;99.90
18511;DHT22;9384;48.044;11.616;2022-12-13T06:20:39;-12.60;99.90
18511;DHT22;9384;48.044;11.616;2022-12-13T06:23:06;-12.50;99.90
18511;DHT22;9384;48.044;11.616;2022-12-13T06:25:35;-12.50;99.90
18511;DHT22;9384;48.044;11.616;2022-12-13T06:28:03;-12.40;99.90
18511;DHT22;9384;48.044;11.616;2022-12-13T06:30:36;-12.40;99.90
18511;DHT22;9384;48.044;11.616;2022-12-13T06:33:03;-12.40;99.90
18511;DHT22;9384;48.044;11.616;2022-12-13T06:35:30;-12.30;99.90
18511;DHT22;9384;48.044;11.616;2022-12-13T06:37:57;-12.30;99.90
18511;DHT22;9384;48.044;11.616;2022-12-13T06:40:23;-12.30;99.90
18511;DHT22;9384;48.044;11.616;2022-12-13T06:42:50;-12.30;99.90
18511;DHT22;9384;48.044;11.616;2022-12-13T06:45:18;-12.40;99.90
18511;DHT22;9384;48.044;11.616;2022-12-13T06:47:45;-12.40;99.90
18511;DHT22;9384;48.044;11.616;2022-12-13T06:50:12;-12.50;99.90
18511;DHT22;9384;48.044;11.616;2022-12-13T06:52:39;-12.50;99.90
18511;DHT22;9384;48.044;11.616;2022-12-13T06:55:07;-12.60;99.90
18511;DHT22;9384;48.044;11.616;2022-12-13T06:57:33;-12.50;99.90
18511;DHT22;9384;48.044;11.616;2022-12-13T07:00:01;-12.50;99.90
18511;DHT22;9384;48.044;11.616;2022-12-13T07:02:30;-12.70;99.90
18511;DHT22;9384;48.044;11.616;2022-12-13T07:04:58;-12.80;99.90
18511;DHT22;9384;48.044;11.616;2022-12-13T07:07:26;-12.80;99.90
18511;DHT22;9384;48.044;11.616;2022-12-13T07:09:52;-12.80;99.90
18511;DHT22;9384;48.044;11.616;2022-12-13T07:12:19;-12.80;99.90
18511;DHT22;9384;48.044;11.616;2022-12-13T07:14:46;-12.60;99.90
18511;DHT22;9384;48.044;11.616;2022-12-13T07:17:13;-12.60;99.90
18511;DHT22;9384;48.044;11.616;2022-12-13T07:19:42;-12.50;99.90
18511;DHT22;9384;48.044;11.616;2022-12-13T07:22:08;-12.50;99.90
18511;DHT22;9384;48.044;11.616;2022-12-13T07:24:35;-12.50;99.90
18511;DHT22;9384;48.044;11.616;2022-12-13T07:27:03;-12.50;99.90
18511;DHT22;9384;48.044;11.616;2022-12-13T07:29:30;-12.40;99.90
18511;DHT22;9384;48.044;11.616;2022-12-13T07:31:57;-12.40;99.90
18511;DHT22;9384;48.044;11.616;2022-12-13T07:34:23;-12.30;99.90
18511;DHT22;9384;48.044;11.616;2022-12-13T07:36:52;-12.20;99.90
18511;DHT22;9384;48.044;11.616;2022-12-13T07:39:18;-12.10;99.90
18511;DHT22;9384;48.044;11.616;2022-12-13T07:41:45;-12.10;99.90
18511;DHT22;9384;48.044;11.616;2022-12-13T07:44:12;-11.90;99.90
18511;DHT22;9384;48.044;11.616;2022-12-13T07:46:39;-11.90;99.90
18511;DHT22;9384;48.044;11.616;2022-12-13T07:49:06;-11.70;99.90
18511;DHT22;9384;48.044;11.616;2022-12-13T07:51:33;-11.60;99.90
18511;DHT22;9384;48.044;11.616;2022-12-13T07:54:01;-11.60;99.90
18511;DHT22;9384;48.044;11.616;2022-12-13T07:56:29;-11.60;99.90
18511;DHT22;9384;48.044;11.616;2022-12-13T07:58:55;-11.60;99.90
18511;DHT22;9384;48.044;11.616;2022-12-13T08:01:22;-11.70;99.90
18511;DHT22;9384;48.044;11.616;2022-12-13T08:03:49;-11.70;99.90
18511;DHT22;9384;48.044;11.616;2022-12-13T08:08:54;-11.80;99.90
18511;DHT22;9384;48.044;11.616;2022-12-13T08:11:22;-11.70;99.90
18511;DHT22;9384;48.044;11.616;2022-12-13T08:13:49;-11.70;99.90
18511;DHT22;9384;48.044;11.616;2022-12-13T08:16:16;-11.60;99.90
18511;DHT22;9384;48.044;11.616;2022-12-13T08:18:43;-11.50;99.90
18511;DHT22;9384;48.044;11.616;2022-12-13T08:21:12;-11.40;99.90
18511;DHT22;9384;48.044;11.616;2022-12-13T08:23:40;-11.30;99.90
18511;DHT22;9384;48.044;11.616;2022-12-13T08:26:06;-11.20;99.90
18511;DHT22;9384;48.044;11.616;2022-12-13T08:28:35;-11.00;99.90
18511;DHT22;9384;48.044;11.616;2022-12-13T08:31:03;-10.90;99.90
18511;DHT22;9384;48.044;11.616;2022-12-13T08:33:32;-10.70;99.90
18511;DHT22;9384;48.044;11.616;2022-12-13T08:36:07;-10.60;99.90
18511;DHT22;9384;48.044;11.616;2022-12-13T08:38:33;-10.60;99.90
18511;DHT22;9384;48.044;11.616;2022-12-13T08:41:00;-10.50;99.90
18511;DHT22;9384;48.044;11.616;2022-12-13T08:43:27;-10.40;99.90
18511;DHT22;9384;48.044;11.616;2022-12-13T08:45:56;-10.30;99.90
18511;DHT22;9384;48.044;11.616;2022-12-13T08:48:22;-10.20;99.90
18511;DHT22;9384;48.044;11.616;2022-12-13T08:50:49;-10.10;99.90
18511;DHT22;9384;48.044;11.616;2022-12-13T08:53:16;-10.00;99.90
18511;DHT22;9384;48.044;11.616;2022-12-13T08:55:43;-9.90;99.90
18511;DHT22;9384;48.044;11.616;2022-12-13T08:58:10;-9.70;99.90
18511;DHT22;9384;48.044;11.616;2022-12-13T09:00:37;-9.60;99.90
18511;DHT22;9384;48.044;11.616;2022-12-13T09:03:06;-9.50;99.90
18511;DHT22;9384;48.044;11.616;2022-12-13T09:05:33;-9.30;99.90
18511;DHT22;9384;48.044;11.616;2022-12-13T09:08:00;-9.20;99.90
18511;DHT22;9384;48.044;11.616;2022-12-13T09:10:29;-9.00;99.90
18511;DHT22;9384;48.044;11.616;2022-12-13T09:12:56;-8.90;99.90
18511;DHT22;9384;48.044;11.616;2022-12-13T09:15:24;-8.70;99.90
18511;DHT22;9384;48.044;11.616;2022-12-13T09:17:51;-8.60;99.90
18511;DHT22;9384;48.044;11.616;2022-12-13T09:20:19;-8.30;99.90
18511;DHT22;9384;48.044;11.616;2022-12-13T09:22:46;-8.10;99.90
18511;DHT22;9384;48.044;11.616;2022-12-13T09:25:13;-7.90;99.90
18511;DHT22;9384;48.044;11.616;2022-12-13T09:27:40;-7.80;99.90
18511;DHT22;9384;48.044;11.616;2022-12-13T09:30:09;-7.60;99.90
18511;DHT22;9384;48.044;11.616;2022-12-13T09:32:38;-7.40;99.90
18511;DHT22;9384;48.044;11.616;2022-12-13T09:35:05;-7.40;99.90
18511;DHT22;9384;48.044;11.616;2022-12-13T09:37:34;-7.10;99.90
18511;DHT22;9384;48.044;11.616;2022-12-13T09:40:01;-6.70;99.90
18511;DHT22;9384;48.044;11.616;2022-12-13T09:42:29;-6.30;99.90
18511;DHT22;9384;48.044;11.616;2022-12-13T09:44:58;-6.00;99.90
18511;DHT22;9384;48.044;11.616;2022-12-13T09:47:30;-5.80;99.90
18511;DHT22;9384;48.044;11.616;2022-12-13T09:49:58;-5.40;99.90
18511;DHT22;9384;48.044;11.616;2022-12-13T09:52:29;-5.10;99.90
18511;DHT22;9384;48.044;11.616;2022-12-13T09:55:13;-4.80;99.90
18511;DHT22;9384;48.044;11.616;2022-12-13T09:57:42;-4.60;99.90
18511;DHT22;9384;48.044;11.616;2022-12-13T10:00:13;-4.30;99.90
18511;DHT22;9384;48.044;11.616;2022-12-13T10:02:42;-4.00;99.90
18511;DHT22;9384;48.044;11.616;2022-12-13T10:05:22;-3.70;99.90
18511;DHT22;9384;48.044;11.616;2022-12-13T10:07:52;-3.70;99.90
18511;DHT22;9384;48.044;11.616;2022-12-13T10:10:21;-3.50;99.90
18511;DHT22;9384;48.044;11.616;2022-12-13T10:12:54;-3.80;99.90
18511;DHT22;9384;48.044;11.616;2022-12-13T10:15:22;-3.50;99.90
18511;DHT22;9384;48.044;11.616;2022-12-13T10:17:49;-3.70;99.90
18511;DHT22;9384;48.044;11.616;2022-12-13T10:20:19;-3.50;99.90
18511;DHT22;9384;48.044;11.616;2022-12-13T10:22:47;-3.30;99.90
18511;DHT22;9384;48.044;11.616;2022-12-13T10:25:14;-3.10;99.90
18511;DHT22;9384;48.044;11.616;2022-12-13T10:27:43;-2.90;99.90
18511;DHT22;9384;48.044;11.616;2022-12-13T10:30:13;-3.00;99.90
18511;DHT22;9384;48.044;11.616;2022-12-13T10:32:49;-3.00;99.90
18511;DHT22;9384;48.044;11.616;2022-12-13T10:35:23;-3.10;99.90
18511;DHT22;9384;48.044;11.616;2022-12-13T10:37:51;-3.00;99.90
18511;DHT22;9384;48.044;11.616;2022-12-13T10:40:27;-2.80;99.90
18511;DHT22;9384;48.044;11.616;2022-12-13T10:43:21;-2.70;99.40
18511;DHT22;9384;48.044;11.616;2022-12-13T10:45:57;-2.70;99.90
18511;DHT22;9384;48.044;11.616;2022-12-13T10:48:30;-2.40;99.90
18511;DHT22;9384;48.044;11.616;2022-12-13T10:51:01;-2.30;99.30
18511;DHT22;9384;48.044;11.616;2022-12-13T10:53:30;-2.20;98.80
18511;DHT22;9384;48.044;11.616;2022-12-13T10:55:58;-2.40;97.70
18511;DHT22;9384;48.044;11.616;2022-12-13T10:58:36;-2.30;99.00
18511;DHT22;9384;48.044;11.616;2022-12-13T11:01:10;-2.40;97.80
18511;DHT22;9384;48.044;11.616;2022-12-13T11:03:37;-2.60;99.30
18511;DHT22;9384;48.044;11.616;2022-12-13T11:06:05;-2.30;99.30
18511;DHT22;9384;48.044;11.616;2022-12-13T11:11:01;-1.20;97.70
18511;DHT22;9384;48.044;11.616;2022-12-13T11:13:34;-1.20;97.80
18511;DHT22;9384;48.044;11.616;2022-12-13T11:16:09;-1.10;96.60
18511;DHT22;9384;48.044;11.616;2022-12-13T11:18:42;-1.00;96.20
18511;DHT22;9384;48.044;11.616;2022-12-13T11:21:09;-0.90;97.00
18511;DHT22;9384;48.044;11.616;2022-12-13T11:23:38;-0.60;96.20
18511;DHT22;9384;48.044;11.616;2022-12-13T11:26:07;-0.70;96.10
18511;DHT22;9384;48.044;11.616;2022-12-13T11:28:57;-0.60;96.80
18511;DHT22;9384;48.044;11.616;2022-12-13T11:31:32;-0.80;95.30
18511;DHT22;9384;48.044;11.616;2022-12-13T11:34:08;0.10;96.50
18511;DHT22;9384;48.044;11.616;2022-12-13T11:36:49;0.60;94.90
18511;DHT22;9384;48.044;11.616;2022-12-13T11:39:26;0.80;95.10
18511;DHT22;9384;48.044;11.616;2022-12-13T11:49:32;1.10;92.50
18511;DHT22;9384;48.044;11.616;2022-12-13T11:52:05;0.70;91.70
18511;DHT22;9384;48.044;11.616;2022-12-13T11:54:42;0.60;93.60
18511;DHT22;9384;48.044;11.616;2022-12-13T11:57:18;0.40;92.50
18511;DHT22;9384;48.044;11.616;2022-12-13T11:59:54;0.20;93.00
18511;DHT22;9384;48.044;11.616;2022-12-13T12:02:29;0.10;92.90
18511;DHT22;9384;48.044;11.616;2022-12-13T12:05:02;0.40;92.80
18511;DHT22;9384;48.044;11.616;2022-12-13T12:07:34;0.30;93.50
18511;DHT22;9384;48.044;11.616;2022-12-13T12:10:14;0.40;92.70
18511;DHT22;9384;48.044;11.616;2022-12-13T12:12:47;0.50;93.30
18511;DHT22;9384;48.044;11.616;2022-12-13T12:15:18;0.60;92.10
18511;DHT22;9384;48.044;11.616;2022-12-13T12:17:48;-0.30;92.50
18511;DHT22;9384;48.044;11.616;2022-12-13T12:20:18;-0.20;93.10
18511;DHT22;9384;48.044;11.616;2022-12-13T12:22:51;0.30;94.20
18511;DHT22;9384;48.044;11.616;2022-12-13T12:25:25;0.80;93.10
18511;DHT22;9384;48.044;11.616;2022-12-13T12:28:01;0.70;93.20
18511;DHT22;9384;48.044;11.616;2022-12-13T12:30:41;0.80;92.50
18511;DHT22;9384;48.044;11.616;2022-12-13T12:33:19;0.80;92.60
18511;DHT22;9384;48.044;11.616;2022-12-13T12:36:00;0.10;91.60
18511;DHT22;9384;48.044;11.616;2022-12-13T12:38:50;0.00;92.90
18511;DHT22;9384;48.044;11.616;2022-12-13T12:41:44;0.10;93.30
18511;DHT22;9384;48.044;11.616;2022-12-13T12:44:23;0.50;93.30
18511;DHT22;9384;48.044;11.616;2022-12-13T12:47:04;0.10;92.20
18511;DHT22;9384;48.044;11.616;2022-12-13T12:50:02;0.10;93.10
18511;DHT22;9384;48.044;11.616;2022-12-13T12:52:41;-0.20;92.90
18511;DHT22;9384;48.044;11.616;2022-12-13T12:55:17;-0.10;94.00
18511;DHT22;9384;48.044;11.616;2022-12-13T12:57:54;-0.20;93.70
18511;DHT22;9384;48.044;11.616;2022-12-13T13:00:47;-0.20;92.50
18511;DHT22;9384;48.044;11.616;2022-12-13T13:03:21;-0.60;93.80
18511;DHT22;9384;48.044;11.616;2022-12-13T13:05:52;-1.30;94.00
18511;DHT22;9384;48.044;11.616;2022-12-13T13:08:23;-1.30;94.90
18511;DHT22;9384;48.044;11.616;2022-12-13T13:10:51;-0.90;94.40
18511;DHT22;9384;48.044;11.616;2022-12-13T13:13:43;-1.30;94.50
18511;DHT22;9384;48.044;11.616;2022-12-13T13:16:30;-1.00;95.10
18511;DHT22;9384;48.044;11.616;2022-12-13T13:19:00;-0.70;94.20
18511;DHT22;9384;48.044;11.616;2022-12-13T13:21:32;-0.90;94.40
18511;DHT22;9384;48.044;11.616;2022-12-13T13:24:12;-0.80;94.10
18511;DHT22;9384;48.044;11.616;2022-12-13T13:26:43;-0.50;93.60
18511;DHT22;9384;48.044;11.616;2022-12-13T13:29:28;-0.50;93.40
18511;DHT22;9384;48.044;11.616;2022-12-13T13:31:56;-0.50;93.10
18511;DHT22;9384;48.044;11.616;2022-12-13T13:34:27;-0.60;93.30
18511;DHT22;9384;48.044;11.616;2022-12-13T13:36:55;-0.70;92.70
18511;DHT22;9384;48.044;11.616;2022-12-13T13:39:53;-0.80;92.40
18511;DHT22;9384;48.044;11.616;2022-12-13T13:42:22;-1.10;92.70
18511;DHT22;9384;48.044;11.616;2022-12-13T13:45:17;-1.10;92.90
18511;DHT22;9384;48.044;11.616;2022-12-13T13:47:50;-1.20;92.60
18511;DHT22;9384;48.044;11.616;2022-12-13T13:50:54;-1.40;93.10
18511;DHT22;9384;48.044;11.616;2022-12-13T13:56:34;-1.70;93.20
18511;DHT22;9384;48.044;11.616;2022-12-13T13:59:43;-2.00;94.00
18511;DHT22;9384;48.044;11.616;2022-12-13T14:05:43;-2.40;94.60
18511;DHT22;9384;48.044;11.616;2022-12-13T14:08:26;-2.70;95.60
18511;DHT22;9384;48.044;11.616;2022-12-13T14:11:19;-2.70;95.90
18511;DHT22;9384;48.044;11.616;2022-12-13T14:17:23;-2.90;96.60
18511;DHT22;9384;48.044;11.616;2022-12-13T14:22:52;-3.30;97.10
18511;DHT22;9384;48.044;11.616;2022-12-13T14:25:46;-3.40;97.30
18511;DHT22;9384;48.044;11.616;2022-12-13T14:28:23;-3.60;97.40
18511;DHT22;9384;48.044;11.616;2022-12-13T14:30:52;-3.70;97.70
18511;DHT22;9384;48.044;11.616;2022-12-13T14:33:21;-4.00;98.10
18511;DHT22;9384;48.044;11.616;2022-12-13T14:35:52;-4.30;98.40
18511;DHT22;9384;48.044;11.616;2022-12-13T14:38:22;-4.30;98.90
18511;DHT22;9384;48.044;11.616;2022-12-13T14:40:53;-4.40;99.00
18511;DHT22;9384;48.044;11.616;2022-12-13T14:43:24;-4.40;99.10
18511;DHT22;9384;48.044;11.616;2022-12-13T14:45:54;-4.30;99.10
18511;DHT22;9384;48.044;11.616;2022-12-13T14:48:22;-4.40;99.20
18511;DHT22;9384;48.044;11.616;2022-12-13T14:50:50;-4.50;99.20
18511;DHT22;9384;48.044;11.616;2022-12-13T14:53:23;-4.50;99.40
18511;DHT22;9384;48.044;11.616;2022-12-13T14:56:07;-4.70;99.40
18511;DHT22;9384;48.044;11.616;2022-12-13T14:58:34;-5.00;99.80
18511;DHT22;9384;48.044;11.616;2022-12-13T15:01:02;-5.10;99.90
18511;DHT22;9384;48.044;11.616;2022-12-13T15:03:29;-5.10;99.90
18511;DHT22;9384;48.044;11.616;2022-12-13T15:05:59;-5.10;99.90
18511;DHT22;9384;48.044;11.616;2022-12-13T15:08:26;-5.20;99.90
18511;DHT22;9384;48.044;11.616;2022-12-13T15:10:55;-5.30;99.90
18511;DHT22;9384;48.044;11.616;2022-12-13T15:13:34;-5.40;99.90
18511;DHT22;9384;48.044;11.616;2022-12-13T15:16:06;-5.50;99.90
18511;DHT22;9384;48.044;11.616;2022-12-13T15:18:34;-5.60;99.90
18511;DHT22;9384;48.044;11.616;2022-12-13T15:21:02;-5.70;99.90
18511;DHT22;9384;48.044;11.616;2022-12-13T15:23:31;-5.80;99.90
18511;DHT22;9384;48.044;11.616;2022-12-13T15:26:00;-6.00;99.90
18511;DHT22;9384;48.044;11.616;2022-12-13T15:28:32;-6.10;99.90
18511;DHT22;9384;48.044;11.616;2022-12-13T15:31:00;-6.20;99.90
18511;DHT22;9384;48.044;11.616;2022-12-13T15:33:28;-6.10;99.90
18511;DHT22;9384;48.044;11.616;2022-12-13T15:36:05;-6.20;99.90
18511;DHT22;9384;48.044;11.616;2022-12-13T15:38:33;-6.10;99.90
18511;DHT22;9384;48.044;11.616;2022-12-13T15:41:02;-6.10;99.90
18511;DHT22;9384;48.044;11.616;2022-12-13T15:43:34;-6.20;99.90
18511;DHT22;9384;48.044;11.616;2022-12-13T15:46:02;-6.30;99.90
18511;DHT22;9384;48.044;11.616;2022-12-13T15:48:33;-6.20;99.90
18511;DHT22;9384;48.044;11.616;2022-12-13T15:51:07;-6.20;99.90
18511;DHT22;9384;48.044;11.616;2022-12-13T15:53:35;-6.30;99.90
18511;DHT22;9384;48.044;11.616;2022-12-13T15:56:27;-6.30;99.90
18511;DHT22;9384;48.044;11.616;2022-12-13T15:58:56;-6.30;99.90
18511;DHT22;9384;48.044;11.616;2022-12-13T16:01:25;-6.30;99.90
18511;DHT22;9384;48.044;11.616;2022-12-13T16:03:52;-6.30;99.90
18511;DHT22;9384;48.044;11.616;2022-12-13T16:06:20;-6.40;99.90
18511;DHT22;9384;48.044;11.616;2022-12-13T16:08:50;-6.50;99.90
18511;DHT22;9384;48.044;11.616;2022-12-13T16:11:25;-6.50;99.90
18511;DHT22;9384;48.044;11.616;2022-12-13T16:13:53;-6.50;99.90
18511;DHT22;9384;48.044;11.616;2022-12-13T16:16:24;-6.60;99.90
18511;DHT22;9384;48.044;11.616;2022-12-13T16:18:54;-6.60;99.90
18511;DHT22;9384;48.044;11.616;2022-12-13T16:21:22;-6.60;99.90
18511;DHT22;9384;48.044;11.616;2022-12-13T16:23:49;-6.70;99.90
18511;DHT22;9384;48.044;11.616;2022-12-13T16:26:22;-6.70;99.90
18511;DHT22;9384;48.044;11.616;2022-12-13T16:28:50;-6.70;99.90
18511;DHT22;9384;48.044;11.616;2022-12-13T16:31:18;-6.70;99.90
18511;DHT22;9384;48.044;11.616;2022-12-13T16:33:47;-6.70;99.90